Terminal Aerodrome Forecast
Issued by NWS Green Bay, WI

Home | Current Version | Previous Version | Graphics & Text | Print | Product List | Glossary On
Versions: 1 2 3 4 5 6 7 8 9 10 11 12 13 14 15 16 17 18 19 20 21 22 23 24 25 26 27 28 29 30 31 32 33 34 35 36 37
000
FTUS43 KGRB 172300
TAFGRB
TAF
KGRB 172334Z 1800/1824 27006KT P6SM SCT050 SCT200
     FM180200 04011G21KT P6SM BKN070
     FM180400 03012G20KT P6SM SCT020 BKN030
     FM181000 04010KT P6SM SCT020
     FM181600 06007KT P6SM SCT025 SCT050=

USA.gov is the U.S. government's official web portal to all federal, state and local government web resources and services.